Chepes, Argentina
Current Conditions -  °F | °C
As of 12:00 PM on Saturday 25 Oct 2014 (Local Time) from SACO Reporting Station
Scattered Clouds Scattered Clouds  
Wind Chill: 90°   Ceiling: Unl
Heat Index: 90°   Visibility: 6mi
Dew Point: 55°   Wind: 17mph
Humidity: 31%   Direction: 50°NE
Pressure: 29.97"   Gusts: NA
Location:  31.35°S, 66.58°W
Report Text: SACO 251500Z 05015KT 9999 FEW025 SCT20032/13 Q1015
Loading
Personal Weather Stations






























Interactive Weather Map
Tropical Storm Tracking
New forecast layout! Learn more

10-Day Weather Forecast

Advertisements
Track Severe Weather on mobile